KTSP/TSP METAR and TAF weather

Enter ICAO airport designator
Station Type Date Time Source
KTSP METAR 2022/01/19 19:35 UTC NOAA

KTSP 191935Z AUTO 32003KT 8SM CLR 11/02 A3023 RMK AO2


Station Type Date Time Source
KTSP Decoded METAR 2022/01/19 19:35 UTC NOAA

Station name not available
Jan 19, 2022 - 02:35 PM EST / 2022.01.19 1935 UTC
Wind: from the NW (320 degrees) at 3 MPH (3 KT):0
Visibility: 8 mile(s):0
Sky conditions: clear
Temperature: 51 F (11 C)
Dew Point: 35 F (2 C)
Relative Humidity: 53%
Pressure (altimeter): 30.23 in. Hg (1023 hPa)
ob: KTSP 191935Z AUTO 32003KT 8SM CLR 11/02 A3023 RMK AO2
cycle: 19

Station Type Date Time Source
KTSP TAF UTC NOAA

Error!

Example: see airport list